Terminal Aerodrome Forecast
Issued by NWS Charleston, WV

Current Version | Previous Version | Graphics & Text | Print | Product List | Glossary Off
Versions: 1 2 3 4 5 6 7 8 9 10 11 12 13 14 15 16 17 18 19 20 21 22 23 24 25 26

000
FTUS41 KRLX 231700
TAFHTS
TAF
KHTS 231739Z 2318/2418 20011G15KT P6SM SCT070
     FM232000 30006KT 5SM TSRA BR BKN035CB
     FM240000 28004KT 3SM TSRA BR BKN025CB
     FM240100 30004KT 4SM TSRA BR BKN025CB
     FM240300 VRB03KT 6SM BR VCTS OVC025CB
     FM240500 01004KT 6SM BR VCTS OVC020CB
     FM240800 01006KT 6SM BR BKN020
     FM241100 36007KT P6SM BKN035=

USA.gov is the U.S. government's official web portal to all federal, state and local government web resources and services.